createdAt,value
2016-12-04T00:00:40.656Z,0
2016-12-04T00:01:40.036Z,0
2016-12-04T00:02:40.623Z,0
2016-12-04T00:03:40.641Z,0
2016-12-04T00:04:40.272Z,0
2016-12-04T00:05:40.569Z,0
2016-12-04T00:06:40.243Z,0
2016-12-04T00:07:40.538Z,0
2016-12-04T00:08:40.517Z,0
2016-12-04T00:09:40.189Z,0
2016-12-04T00:10:40.180Z,0
2016-12-04T00:11:39.841Z,0
2016-12-04T00:12:40.464Z,0
2016-12-04T00:13:39.802Z,0
2016-12-04T00:14:40.431Z,0
2016-12-04T00:15:40.409Z,0
2016-12-04T00:16:40.070Z,0
2016-12-04T00:17:40.373Z,0
2016-12-04T00:18:40.350Z,0
2016-12-04T00:19:40.347Z,0
2016-12-04T00:20:40.005Z,0
2016-12-04T00:21:40.332Z,0
2016-12-04T00:22:40.292Z,0
2016-12-04T00:23:40.271Z,0
2016-12-04T00:24:40.256Z,0
2016-12-04T00:25:39.605Z,0
2016-12-04T00:26:40.226Z,0
2016-12-04T00:27:40.240Z,0
2016-12-04T00:28:40.190Z,0
2016-12-04T00:29:40.165Z,0
2016-12-04T00:30:39.835Z,0
2016-12-04T00:31:40.139Z,0
2016-12-04T00:32:40.118Z,0
2016-12-04T00:33:40.099Z,0
2016-12-04T00:34:39.764Z,0
2016-12-04T00:35:40.070Z,0
2016-12-04T00:36:39.729Z,0
2016-12-04T00:37:40.030Z,0
2016-12-04T00:38:40.017Z,0
2016-12-04T00:39:40.004Z,0
2016-12-04T00:40:39.987Z,0
2016-12-04T00:41:39.967Z,0
2016-12-04T00:42:39.949Z,0
2016-12-04T00:43:39.619Z,0
2016-12-04T00:44:39.920Z,0
2016-12-04T00:45:39.901Z,0
2016-12-04T00:46:39.882Z,0
2016-12-04T00:47:39.557Z,0
2016-12-04T00:48:39.846Z,0
2016-12-04T00:49:39.839Z,0
2016-12-04T00:50:39.503Z,0
2016-12-04T00:51:39.518Z,0
2016-12-04T00:52:39.465Z,0
2016-12-04T00:53:39.770Z,0
2016-12-04T00:54:39.755Z,0
2016-12-04T00:55:39.734Z,0
2016-12-04T00:56:39.407Z,0
2016-12-04T00:57:39.696Z,0
2016-12-04T00:58:39.690Z,0
2016-12-04T00:59:39.048Z,0
2016-12-04T01:00:39.844Z,0
2016-12-04T01:01:39.635Z,0
2016-12-04T01:02:39.611Z,0
2016-12-04T01:03:39.600Z,0
2016-12-04T01:04:39.265Z,0
2016-12-04T01:05:39.570Z,0
2016-12-04T01:06:39.543Z,0
2016-12-04T01:07:39.534Z,0
2016-12-04T01:08:39.525Z,0
2016-12-04T01:09:39.495Z,0
2016-12-04T01:10:39.479Z,0
2016-12-04T01:11:39.146Z,0
2016-12-04T01:12:39.444Z,0
2016-12-04T01:13:39.112Z,0
2016-12-04T01:14:39.427Z,0
2016-12-04T01:15:39.390Z,0
2016-12-04T01:16:39.388Z,0
2016-12-04T01:17:39.596Z,0
2016-12-04T01:18:39.025Z,0
2016-12-04T01:19:39.541Z,0
2016-12-04T01:20:39.306Z,0
2016-12-04T01:21:38.978Z,0
2016-12-04T01:22:38.639Z,0
2016-12-04T01:23:39.271Z,0
2016-12-04T01:24:39.242Z,0
2016-12-04T01:25:39.223Z,0
2016-12-04T01:26:38.892Z,0
2016-12-04T01:27:39.187Z,0
2016-12-04T01:28:39.176Z,0
2016-12-04T01:29:39.152Z,0
2016-12-04T01:30:39.339Z,0
2016-12-04T01:31:39.151Z,0
2016-12-04T01:32:39.103Z,0
2016-12-04T01:33:39.324Z,0
2016-12-04T01:34:38.752Z,0
2016-12-04T01:35:39.083Z,0
2016-12-04T01:36:38.714Z,0
2016-12-04T01:37:39.015Z,0
2016-12-04T01:38:39.240Z,0
2016-12-04T01:39:38.666Z,0
2016-12-04T01:40:38.971Z,0
2016-12-04T01:41:38.948Z,0
2016-12-04T01:42:38.937Z,0
2016-12-04T01:43:38.600Z,0
2016-12-04T01:44:38.582Z,0
2016-12-04T01:45:38.879Z,0
2016-12-04T01:46:38.858Z,0
2016-12-04T01:47:38.851Z,0
2016-12-04T01:48:38.826Z,0
2016-12-04T01:49:38.493Z,0
2016-12-04T01:50:38.793Z,0
2016-12-04T01:51:38.457Z,0
2016-12-04T01:52:38.769Z,0
2016-12-04T01:53:38.744Z,0
2016-12-04T01:54:38.737Z,0
2016-12-04T01:55:38.711Z,0
2016-12-04T01:56:38.373Z,0
2016-12-04T01:57:38.672Z,0
2016-12-04T01:58:38.377Z,0
2016-12-04T01:59:38.645Z,0
2016-12-04T02:00:38.308Z,0
2016-12-04T02:01:38.604Z,0
2016-12-04T02:02:38.584Z,0
2016-12-04T02:03:38.264Z,0
2016-12-04T02:04:38.587Z,0
2016-12-04T02:05:38.533Z,0
2016-12-04T02:06:37.890Z,0
2016-12-04T02:07:38.509Z,0
2016-12-04T02:08:38.494Z,0
2016-12-04T02:09:38.155Z,0
2016-12-04T02:10:38.450Z,0
2016-12-04T02:11:38.438Z,0
2016-12-04T02:12:38.638Z,0
2016-12-04T02:13:38.406Z,0
2016-12-04T02:14:38.381Z,0
2016-12-04T02:15:38.054Z,0
2016-12-04T02:16:38.345Z,0
2016-12-04T02:17:38.024Z,0
2016-12-04T02:18:38.000Z,0
2016-12-04T02:19:37.989Z,0
2016-12-04T02:20:38.212Z,0
2016-12-04T02:21:37.949Z,0
2016-12-04T02:22:37.936Z,0
2016-12-04T02:23:38.228Z,0
2016-12-04T02:24:38.209Z,0
2016-12-04T02:25:37.884Z,0
2016-12-04T02:26:38.227Z,0
2016-12-04T02:27:38.164Z,0
2016-12-04T02:28:38.143Z,0
2016-12-04T02:29:38.157Z,0
2016-12-04T02:30:38.110Z,0
2016-12-04T02:31:38.101Z,0
2016-12-04T02:32:38.076Z,0
2016-12-04T02:33:37.745Z,0
2016-12-04T02:34:37.725Z,0
2016-12-04T02:35:37.956Z,0
2016-12-04T02:36:38.003Z,0
2016-12-04T02:37:37.985Z,0
2016-12-04T02:38:37.656Z,0
2016-12-04T02:39:37.957Z,0
2016-12-04T02:40:37.935Z,0
2016-12-04T02:41:37.926Z,0
2016-12-04T02:42:37.903Z,0
2016-12-04T02:43:37.887Z,0
2016-12-04T02:44:38.082Z,0
2016-12-04T02:45:37.583Z,0
2016-12-04T02:46:37.519Z,0
2016-12-04T02:47:37.864Z,0
2016-12-04T02:48:37.481Z,0
2016-12-04T02:49:37.793Z,0
2016-12-04T02:50:37.769Z,0
2016-12-04T02:51:37.425Z,0
2016-12-04T02:52:37.724Z,0
2016-12-04T02:53:37.395Z,0
2016-12-04T02:54:37.695Z,0
2016-12-04T02:55:37.358Z,0
2016-12-04T02:56:37.343Z,0
2016-12-04T02:57:37.641Z,0
2016-12-04T02:58:37.624Z,0
2016-12-04T02:59:37.289Z,0
2016-12-04T03:00:36.965Z,0
2016-12-04T03:01:36.940Z,0
2016-12-04T03:02:37.565Z,0
2016-12-04T03:03:36.905Z,0
2016-12-04T03:04:37.200Z,0
2016-12-04T03:05:37.539Z,0
2016-12-04T03:06:37.480Z,0
2016-12-04T03:07:37.499Z,0
2016-12-04T03:08:37.445Z,0
2016-12-04T03:09:37.426Z,0
2016-12-04T03:10:37.617Z,0
2016-12-04T03:11:37.328Z,0
2016-12-04T03:12:37.385Z,0
2016-12-04T03:13:37.048Z,0
2016-12-04T03:14:37.340Z,0
2016-12-04T03:15:36.699Z,0
2016-12-04T03:16:36.997Z,0
2016-12-04T03:17:36.664Z,0
2016-12-04T03:18:37.270Z,0
2016-12-04T03:19:36.622Z,0
2016-12-04T03:20:36.924Z,0
2016-12-04T03:21:37.221Z,0
2016-12-04T03:22:36.886Z,0
2016-12-04T03:23:36.870Z,0
2016-12-04T03:24:37.170Z,0
2016-12-04T03:25:37.149Z,0
2016-12-04T03:26:37.140Z,0
2016-12-04T03:27:37.116Z,0
2016-12-04T03:28:37.112Z,0
2016-12-04T03:29:37.080Z,0
2016-12-04T03:30:37.065Z,0
2016-12-04T03:31:36.728Z,0
2016-12-04T03:32:36.403Z,0
2016-12-04T03:33:37.004Z,0
2016-12-04T03:34:36.990Z,0
2016-12-04T03:35:36.021Z,0
2016-12-04T03:36:36.964Z,0
2016-12-04T03:37:36.938Z,0
2016-12-04T03:38:36.930Z,0
2016-12-04T03:39:36.274Z,0
2016-12-04T03:40:36.908Z,0
2016-12-04T03:41:36.877Z,0
2016-12-04T03:42:36.222Z,0
2016-12-04T03:43:36.850Z,0
2016-12-04T03:44:36.819Z,0
2016-12-04T03:45:36.511Z,0
2016-12-04T03:46:36.467Z,0
2016-12-04T03:47:36.760Z,0
2016-12-04T03:48:36.755Z,0
2016-12-04T03:49:36.731Z,0
2016-12-04T03:50:36.394Z,0
2016-12-04T03:51:36.694Z,0
2016-12-04T03:52:36.370Z,0
2016-12-04T03:53:36.346Z,0
2016-12-04T03:54:36.323Z,0
2016-12-04T03:55:36.309Z,0
2016-12-04T03:56:35.978Z,0
2016-12-04T03:57:36.590Z,0
2016-12-04T03:58:36.570Z,0
2016-12-04T03:59:36.554Z,0
2016-12-04T04:00:36.600Z,0
2016-12-04T04:01:36.210Z,0
2016-12-04T04:02:36.200Z,0
2016-12-04T04:03:36.487Z,0
2016-12-04T04:04:36.465Z,0
2016-12-04T04:05:36.455Z,0
2016-12-04T04:06:36.438Z,0
2016-12-04T04:07:35.782Z,0
2016-12-04T04:08:36.398Z,0
2016-12-04T04:09:36.378Z,0
2016-12-04T04:10:36.363Z,0
2016-12-04T04:11:36.354Z,0
2016-12-04T04:12:36.331Z,0
2016-12-04T04:13:36.032Z,0
2016-12-04T04:14:35.663Z,0
2016-12-04T04:15:36.007Z,0
2016-12-04T04:16:36.268Z,0
2016-12-04T04:17:36.247Z,0
2016-12-04T04:18:36.248Z,0
2016-12-04T04:19:36.422Z,0
2016-12-04T04:20:36.187Z,0
2016-12-04T04:21:35.857Z,0
2016-12-04T04:22:35.837Z,0
2016-12-04T04:23:35.505Z,0
2016-12-04T04:24:36.357Z,0
2016-12-04T04:25:35.781Z,0
2016-12-04T04:26:35.767Z,0
2016-12-04T04:27:36.068Z,0
2016-12-04T04:28:35.727Z,0
2016-12-04T04:29:36.030Z,0
2016-12-04T04:30:36.015Z,0
2016-12-04T04:31:35.356Z,0
2016-12-04T04:32:36.003Z,0
2016-12-04T04:33:36.012Z,0
2016-12-04T04:34:35.938Z,0
2016-12-04T04:35:35.922Z,0
2016-12-04T04:36:35.904Z,0
2016-12-04T04:37:35.573Z,0
2016-12-04T04:38:35.552Z,0
2016-12-04T04:39:35.769Z,0
2016-12-04T04:40:35.837Z,0
2016-12-04T04:41:35.856Z,0
2016-12-04T04:42:35.803Z,0
2016-12-04T04:43:35.470Z,0
2016-12-04T04:44:35.767Z,0
2016-12-04T04:45:35.751Z,0
2016-12-04T04:46:35.427Z,0
2016-12-04T04:47:35.713Z,0
2016-12-04T04:48:35.694Z,0
2016-12-04T04:49:35.365Z,0
2016-12-04T04:50:35.350Z,0
2016-12-04T04:51:35.649Z,0
2016-12-04T04:52:35.514Z,0
2016-12-04T04:53:35.839Z,0
2016-12-04T04:54:35.591Z,0
2016-12-04T04:55:34.950Z,0
2016-12-04T04:56:35.571Z,0
2016-12-04T04:57:35.534Z,0
2016-12-04T04:58:35.211Z,0
2016-12-04T04:59:35.503Z,0
2016-12-04T05:00:34.850Z,0
2016-12-04T05:01:35.476Z,0
2016-12-04T05:02:35.448Z,0
2016-12-04T05:03:35.477Z,0
2016-12-04T05:04:35.411Z,0
2016-12-04T05:05:35.393Z,0
2016-12-04T05:06:35.058Z,0
2016-12-04T05:07:35.052Z,0
2016-12-04T05:08:35.352Z,0
2016-12-04T05:09:35.330Z,0
2016-12-04T05:10:34.676Z,0
2016-12-04T05:11:35.521Z,0
2016-12-04T05:12:35.500Z,0
2016-12-04T05:13:35.261Z,0
2016-12-04T05:14:34.919Z,0
2016-12-04T05:15:35.225Z,0
2016-12-04T05:16:34.891Z,0
2016-12-04T05:17:35.184Z,0
2016-12-04T05:18:34.857Z,0
2016-12-04T05:19:34.872Z,0
2016-12-04T05:20:34.824Z,0
2016-12-04T05:21:34.811Z,0
2016-12-04T05:22:35.349Z,0
2016-12-04T05:23:35.089Z,0
2016-12-04T05:24:35.076Z,0
2016-12-04T05:25:35.055Z,0
2016-12-04T05:26:35.032Z,0
2016-12-04T05:27:34.730Z,0
2016-12-04T05:28:34.991Z,0
2016-12-04T05:29:35.247Z,0
2016-12-04T05:30:35.017Z,0
2016-12-04T05:31:34.634Z,0
2016-12-04T05:32:34.932Z,0
2016-12-04T05:33:34.911Z,0
2016-12-04T05:34:34.572Z,0
2016-12-04T05:35:34.558Z,0
2016-12-04T05:36:34.543Z,0
2016-12-04T05:37:34.526Z,0
2016-12-04T05:38:34.825Z,0
2016-12-04T05:39:34.806Z,0
2016-12-04T05:40:34.790Z,0
2016-12-04T05:41:34.778Z,0
2016-12-04T05:42:34.760Z,0
2016-12-04T05:43:34.419Z,0
2016-12-04T05:44:34.771Z,0
2016-12-04T05:45:34.388Z,0
2016-12-04T05:46:34.370Z,0
2016-12-04T05:47:34.669Z,0
2016-12-04T05:48:34.648Z,0
2016-12-04T05:49:34.634Z,0
2016-12-04T05:50:34.614Z,0
2016-12-04T05:51:34.604Z,0
2016-12-04T05:52:33.949Z,0
2016-12-04T05:53:34.574Z,0
2016-12-04T05:54:34.555Z,0
2016-12-04T05:55:34.227Z,0
2016-12-04T05:56:34.514Z,0
2016-12-04T05:57:33.865Z,0
2016-12-04T05:58:34.166Z,0
2016-12-04T05:59:34.457Z,0
2016-12-04T06:00:34.449Z,0
2016-12-04T06:01:34.114Z,0
2016-12-04T06:02:34.409Z,0
2016-12-04T06:03:33.760Z,0
2016-12-04T06:04:34.380Z,0
2016-12-04T06:05:34.365Z,0
2016-12-04T06:06:34.574Z,0
2016-12-04T06:07:33.703Z,0
2016-12-04T06:08:34.307Z,0
2016-12-04T06:09:34.300Z,0
2016-12-04T06:10:33.639Z,0
2016-12-04T06:11:33.945Z,0
2016-12-04T06:12:33.923Z,0
2016-12-04T06:13:34.231Z,0
2016-12-04T06:14:34.209Z,0
2016-12-04T06:15:34.188Z,0
2016-12-04T06:16:34.198Z,0
2016-12-04T06:17:33.834Z,0
2016-12-04T06:18:33.854Z,0
2016-12-04T06:19:34.126Z,0
2016-12-04T06:20:34.107Z,0
2016-12-04T06:21:34.096Z,0
2016-12-04T06:22:34.132Z,0
2016-12-04T06:23:34.291Z,0
2016-12-04T06:24:33.416Z,0
2016-12-04T06:25:34.033Z,0
2016-12-04T06:26:33.688Z,0
2016-12-04T06:27:33.987Z,0
2016-12-04T06:28:33.651Z,0
2016-12-04T06:29:33.956Z,0
2016-12-04T06:30:33.947Z,0
2016-12-04T06:31:33.976Z,0
2016-12-04T06:32:33.591Z,0
2016-12-04T06:33:33.892Z,0
2016-12-04T06:34:33.871Z,0
2016-12-04T06:35:33.852Z,0
2016-12-04T06:36:33.526Z,0
2016-12-04T06:37:33.827Z,0
2016-12-04T06:38:33.807Z,0
2016-12-04T06:39:33.798Z,0
2016-12-04T06:40:33.455Z,0
2016-12-04T06:41:33.445Z,0
2016-12-04T06:42:33.745Z,0
2016-12-04T06:43:33.977Z,0
2016-12-04T06:44:33.709Z,0
2016-12-04T06:45:33.378Z,0
2016-12-04T06:46:33.358Z,0
2016-12-04T06:47:33.681Z,0
2016-12-04T06:48:33.322Z,0
2016-12-04T06:49:33.861Z,0
2016-12-04T06:50:33.604Z,0
2016-12-04T06:51:33.275Z,0
2016-12-04T06:52:33.571Z,0
2016-12-04T06:53:33.559Z,0
2016-12-04T06:54:33.541Z,0
2016-12-04T06:55:33.528Z,0
2016-12-04T06:56:32.875Z,0
2016-12-04T06:57:33.494Z,0
2016-12-04T06:58:33.474Z,0
2016-12-04T06:59:33.451Z,0
2016-12-04T07:00:33.124Z,0
2016-12-04T07:01:33.453Z,0
2016-12-04T07:02:33.410Z,0
2016-12-04T07:03:33.074Z,0
2016-12-04T07:04:33.385Z,0
2016-12-04T07:05:33.352Z,0
2016-12-04T07:06:33.345Z,0
2016-12-04T07:07:32.693Z,0
2016-12-04T07:08:32.986Z,0
2016-12-04T07:09:33.290Z,0
2016-12-04T07:10:33.273Z,0
2016-12-04T07:11:33.262Z,0
2016-12-04T07:12:33.241Z,0
2016-12-04T07:13:33.229Z,0
2016-12-04T07:14:33.204Z,0
2016-12-04T07:15:33.197Z,0
2016-12-04T07:16:33.168Z,0
2016-12-04T07:17:33.159Z,0
2016-12-04T07:18:33.140Z,0
2016-12-04T07:19:32.812Z,0
2016-12-04T07:20:33.109Z,0
2016-12-04T07:21:32.774Z,0
2016-12-04T07:22:33.080Z,0
2016-12-04T07:23:32.745Z,0
2016-12-04T07:24:33.040Z,0
2016-12-04T07:25:32.071Z,0
2016-12-04T07:26:33.014Z,0
2016-12-04T07:27:32.994Z,0
2016-12-04T07:28:32.659Z,0
2016-12-04T07:29:32.958Z,0
2016-12-04T07:30:32.954Z,0
2016-12-04T07:31:32.971Z,0
2016-12-04T07:32:32.600Z,0
2016-12-04T07:33:32.898Z,0
2016-12-04T07:34:32.879Z,0
2016-12-04T07:35:32.862Z,0
2016-12-04T07:36:32.531Z,0
2016-12-04T07:37:32.508Z,0
2016-12-04T07:38:32.812Z,0
2016-12-04T07:39:32.799Z,0
2016-12-04T07:40:32.467Z,0
2016-12-04T07:41:32.446Z,0
2016-12-04T07:42:32.751Z,0
2016-12-04T07:43:32.414Z,0
2016-12-04T07:44:32.724Z,0
2016-12-04T07:45:32.691Z,0
2016-12-04T07:46:32.056Z,0
2016-12-04T07:47:32.668Z,0
2016-12-04T07:48:32.645Z,0
2016-12-04T07:49:32.628Z,4
2016-12-04T07:50:32.618Z,4
2016-12-04T07:51:32.603Z,4
2016-12-04T07:52:32.582Z,4
2016-12-04T07:53:32.570Z,4
2016-12-04T07:54:32.548Z,4
2016-12-04T07:55:32.535Z,4
2016-12-04T07:56:32.517Z,4
2016-12-04T07:57:32.187Z,4
2016-12-04T07:58:32.166Z,4
2016-12-04T07:59:32.464Z,4
2016-12-04T08:00:32.135Z,4
2016-12-04T08:01:32.428Z,4
2016-12-04T08:02:32.444Z,4
2016-12-04T08:03:32.128Z,0
2016-12-04T08:04:32.385Z,0
2016-12-04T08:05:31.731Z,0
2016-12-04T08:06:32.351Z,0
2016-12-04T08:07:32.012Z,0
2016-12-04T08:08:32.314Z,0
2016-12-04T08:09:32.301Z,0
2016-12-04T08:10:32.003Z,0
2016-12-04T08:11:32.274Z,0
2016-12-04T08:12:32.245Z,0
2016-12-04T08:13:32.231Z,0
2016-12-04T08:14:32.216Z,4
2016-12-04T08:15:32.206Z,4
2016-12-04T08:16:32.432Z,4
2016-12-04T08:17:32.169Z,4
2016-12-04T08:18:31.836Z,4
2016-12-04T08:19:31.838Z,4
2016-12-04T08:20:31.807Z,4
2016-12-04T08:21:32.110Z,4
2016-12-04T08:22:31.483Z,4
2016-12-04T08:23:31.753Z,4
2016-12-04T08:24:32.056Z,4
2016-12-04T08:25:31.723Z,4
2016-12-04T08:26:31.930Z,4
2016-12-04T08:27:31.695Z,4
2016-12-04T08:28:31.990Z,4
2016-12-04T08:29:31.705Z,4
2016-12-04T08:30:32.203Z,4
2016-12-04T08:31:31.310Z,4
2016-12-04T08:32:31.979Z,4
2016-12-04T08:33:31.936Z,4
2016-12-04T08:34:31.578Z,4
2016-12-04T08:35:31.258Z,4
2016-12-04T08:36:31.860Z,4
2016-12-04T08:37:31.844Z,4
2016-12-04T08:38:31.503Z,4
2016-12-04T08:39:31.817Z,4
2016-12-04T08:40:31.796Z,4
2016-12-04T08:41:31.777Z,4
2016-12-04T08:42:31.444Z,4
2016-12-04T08:43:31.893Z,4
2016-12-04T08:44:31.410Z,4
2016-12-04T08:45:31.716Z,4
2016-12-04T08:46:31.725Z,4
2016-12-04T08:47:31.687Z,4
2016-12-04T08:48:31.669Z,4
2016-12-04T08:49:31.651Z,4
2016-12-04T08:50:31.645Z,4
2016-12-04T08:51:31.303Z,4
2016-12-04T08:52:31.598Z,4
2016-12-04T08:53:31.585Z,4
2016-12-04T08:54:31.572Z,4
2016-12-04T08:55:31.237Z,4
2016-12-04T08:56:31.428Z,4
2016-12-04T08:57:31.532Z,4
2016-12-04T08:58:31.195Z,4
2016-12-04T08:59:31.487Z,4
2016-12-04T09:00:31.482Z,4
2016-12-04T09:01:31.468Z,4
2016-12-04T09:02:31.441Z,4
2016-12-04T09:03:31.444Z,4
2016-12-04T09:04:31.406Z,4
2016-12-04T09:05:31.387Z,4
2016-12-04T09:06:31.382Z,4
2016-12-04T09:07:31.359Z,4
2016-12-04T09:08:31.343Z,4
2016-12-04T09:09:31.322Z,4
2016-12-04T09:10:31.317Z,4
2016-12-04T09:11:31.312Z,4
2016-12-04T09:12:31.276Z,4
2016-12-04T09:13:31.257Z,4
2016-12-04T09:14:31.246Z,4
2016-12-04T09:15:31.137Z,4
2016-12-04T09:16:30.897Z,4
2016-12-04T09:17:30.883Z,4
2016-12-04T09:18:31.183Z,4
2016-12-04T09:19:30.853Z,4
2016-12-04T09:20:30.838Z,4
2016-12-04T09:21:31.129Z,4
2016-12-04T09:22:31.114Z,4
2016-12-04T09:23:30.464Z,4
2016-12-04T09:24:31.310Z,4
2016-12-04T09:25:31.076Z,4
2016-12-04T09:26:31.047Z,4
2016-12-04T09:27:30.636Z,4
2016-12-04T09:28:31.018Z,4
2016-12-04T09:29:30.694Z,4
2016-12-04T09:30:30.982Z,4
2016-12-04T09:31:30.969Z,4
2016-12-04T09:32:30.956Z,4
2016-12-04T09:33:30.619Z,8
2016-12-04T09:34:30.929Z,8
2016-12-04T09:35:30.899Z,8
2016-12-04T09:36:30.575Z,8
2016-12-04T09:37:30.873Z,8
2016-12-04T09:38:30.858Z,4
2016-12-04T09:39:30.525Z,4
2016-12-04T09:40:30.816Z,4
2016-12-04T09:41:31.015Z,4
2016-12-04T09:42:30.706Z,4
2016-12-04T09:43:30.780Z,8
2016-12-04T09:44:30.448Z,8
2016-12-04T09:45:30.753Z,8
2016-12-04T09:46:30.737Z,8
2016-12-04T09:47:30.396Z,4
2016-12-04T09:48:30.369Z,4
2016-12-04T09:49:30.735Z,8
2016-12-04T09:50:30.663Z,8
2016-12-04T09:51:30.335Z,8
2016-12-04T09:52:30.629Z,4
2016-12-04T09:53:30.497Z,8
2016-12-04T09:54:30.596Z,8
2016-12-04T09:55:30.574Z,8
2016-12-04T09:56:30.556Z,20
2016-12-04T09:57:30.536Z,92
2016-12-04T09:58:30.207Z,124
2016-12-04T09:59:30.510Z,100
2016-12-04T10:00:30.417Z,184
2016-12-04T10:01:30.473Z,104
2016-12-04T10:02:30.450Z,68
2016-12-04T10:03:30.446Z,120
2016-12-04T10:04:30.424Z,36
2016-12-04T10:05:30.406Z,8
2016-12-04T10:06:30.383Z,12
2016-12-04T10:07:30.054Z,12
2016-12-04T10:08:30.043Z,12
2016-12-04T10:09:30.334Z,8
2016-12-04T10:10:30.000Z,12
2016-12-04T10:11:30.300Z,12
2016-12-04T10:12:29.974Z,12
2016-12-04T10:13:29.663Z,12
2016-12-04T10:14:30.258Z,8
2016-12-04T10:15:29.939Z,8
2016-12-04T10:16:30.221Z,12
2016-12-04T10:17:29.886Z,12
2016-12-04T10:18:30.187Z,12
2016-12-04T10:19:29.854Z,8
2016-12-04T10:20:30.166Z,8
2016-12-04T10:21:30.139Z,8
2016-12-04T10:22:30.128Z,12
2016-12-04T10:23:29.799Z,12
2016-12-04T10:24:29.772Z,8
2016-12-04T10:25:29.757Z,12
2016-12-04T10:26:29.427Z,12
2016-12-04T10:27:29.722Z,12
2016-12-04T10:28:30.023Z,12
2016-12-04T10:29:29.939Z,12
2016-12-04T10:30:29.985Z,12
2016-12-04T10:31:29.980Z,16
2016-12-04T10:32:29.951Z,16
2016-12-04T10:33:29.623Z,16
2016-12-04T10:34:29.920Z,20
2016-12-04T10:35:29.595Z,24
2016-12-04T10:36:29.888Z,24
2016-12-04T10:37:29.872Z,24
2016-12-04T10:38:29.855Z,28
2016-12-04T10:39:29.212Z,28
2016-12-04T10:40:29.885Z,32
2016-12-04T10:41:29.844Z,32
2016-12-04T10:42:29.470Z,36
2016-12-04T10:43:29.451Z,36
2016-12-04T10:44:29.434Z,36
2016-12-04T10:45:29.733Z,36
2016-12-04T10:46:29.421Z,36
2016-12-04T10:47:29.386Z,36
2016-12-04T10:48:29.697Z,36
2016-12-04T10:49:29.674Z,36
2016-12-04T10:50:29.345Z,36
2016-12-04T10:51:29.659Z,36
2016-12-04T10:52:29.620Z,40
2016-12-04T10:53:29.289Z,36
2016-12-04T10:54:29.586Z,40
2016-12-04T10:55:29.572Z,40
2016-12-04T10:56:29.556Z,44
2016-12-04T10:57:29.542Z,44
2016-12-04T10:58:29.219Z,48
2016-12-04T10:59:29.502Z,48
2016-12-04T11:00:29.172Z,48
2016-12-04T11:01:29.153Z,52
2016-12-04T11:02:29.146Z,52
2016-12-04T11:03:29.121Z,56
2016-12-04T11:04:29.424Z,60
2016-12-04T11:05:29.403Z,60
2016-12-04T11:06:29.067Z,60
2016-12-04T11:07:28.742Z,56
2016-12-04T11:08:29.035Z,56
2016-12-04T11:09:29.348Z,56
2016-12-04T11:10:29.322Z,56
2016-12-04T11:11:29.311Z,56
2016-12-04T11:12:29.290Z,56
2016-12-04T11:13:29.265Z,52
2016-12-04T11:14:29.252Z,52
2016-12-04T11:15:29.236Z,52
2016-12-04T11:16:28.589Z,48
2016-12-04T11:17:29.206Z,52
2016-12-04T11:18:29.197Z,52
2016-12-04T11:19:29.180Z,48
2016-12-04T11:20:29.161Z,48
2016-12-04T11:21:29.137Z,48
2016-12-04T11:22:28.808Z,52
2016-12-04T11:23:29.110Z,52
2016-12-04T11:24:28.776Z,48
2016-12-04T11:25:29.079Z,48
2016-12-04T11:26:28.745Z,48
2016-12-04T11:27:29.048Z,48
2016-12-04T11:28:29.049Z,48
2016-12-04T11:29:29.016Z,44
2016-12-04T11:30:28.996Z,40
2016-12-04T11:31:28.342Z,36
2016-12-04T11:32:28.970Z,36
2016-12-04T11:33:28.943Z,32
2016-12-04T11:34:28.291Z,36
2016-12-04T11:35:28.591Z,36
2016-12-04T11:36:28.897Z,40
2016-12-04T11:37:28.876Z,44
2016-12-04T11:38:28.859Z,48
2016-12-04T11:39:28.525Z,52
2016-12-04T11:40:29.027Z,52
2016-12-04T11:41:28.493Z,52
2016-12-04T11:42:28.788Z,52
2016-12-04T11:43:28.779Z,56
2016-12-04T11:44:28.758Z,56
2016-12-04T11:45:28.744Z,60
2016-12-04T11:46:28.723Z,60
2016-12-04T11:47:28.397Z,64
2016-12-04T11:48:28.699Z,60
2016-12-04T11:49:28.680Z,60
2016-12-04T11:50:28.664Z,56
2016-12-04T11:51:28.641Z,52
2016-12-04T11:52:28.632Z,52
2016-12-04T11:53:28.821Z,48
2016-12-04T11:54:28.513Z,48
2016-12-04T11:55:28.580Z,52
2016-12-04T11:56:28.563Z,52
2016-12-04T11:57:28.540Z,56
2016-12-04T11:58:27.584Z,56
2016-12-04T11:59:28.192Z,56
2016-12-04T12:00:28.491Z,52
2016-12-04T12:01:28.475Z,52
2016-12-04T12:02:28.460Z,48
2016-12-04T12:03:28.647Z,48
2016-12-04T12:04:28.121Z,48
2016-12-04T12:05:28.419Z,48
2016-12-04T12:06:28.083Z,48
2016-12-04T12:07:28.428Z,44
2016-12-04T12:08:28.362Z,44
2016-12-04T12:09:28.354Z,40
2016-12-04T12:10:28.338Z,40
2016-12-04T12:11:28.311Z,40
2016-12-04T12:12:28.299Z,36
2016-12-04T12:13:28.274Z,36
2016-12-04T12:14:27.947Z,36
2016-12-04T12:15:28.284Z,36
2016-12-04T12:16:28.227Z,36
2016-12-04T12:17:27.893Z,40
2016-12-04T12:18:28.192Z,44
2016-12-04T12:19:28.180Z,44
2016-12-04T12:20:27.846Z,40
2016-12-04T12:21:27.837Z,40
2016-12-04T12:22:28.157Z,40
2016-12-04T12:23:28.119Z,36
2016-12-04T12:24:28.099Z,40
2016-12-04T12:25:28.084Z,44
2016-12-04T12:26:28.095Z,52
2016-12-04T12:27:27.729Z,56
2016-12-04T12:28:28.030Z,56
2016-12-04T12:29:27.707Z,56
2016-12-04T12:30:27.998Z,60
2016-12-04T12:31:27.976Z,68
2016-12-04T12:32:27.967Z,72
2016-12-04T12:33:28.144Z,68
2016-12-04T12:34:27.936Z,68
2016-12-04T12:35:27.919Z,60
2016-12-04T12:36:27.898Z,56
2016-12-04T12:37:27.562Z,48
2016-12-04T12:38:27.867Z,44
2016-12-04T12:39:27.850Z,40
2016-12-04T12:40:27.833Z,36
2016-12-04T12:41:27.817Z,28
2016-12-04T12:42:27.798Z,24
2016-12-04T12:43:27.470Z,20
2016-12-04T12:44:27.965Z,20
2016-12-04T12:45:27.744Z,20
2016-12-04T12:46:27.737Z,16
2016-12-04T12:47:27.621Z,16
2016-12-04T12:48:27.395Z,16
2016-12-04T12:49:27.375Z,16
2016-12-04T12:50:27.667Z,12
2016-12-04T12:51:27.642Z,12
2016-12-04T12:52:27.636Z,8
2016-12-04T12:53:27.300Z,12
2016-12-04T12:54:27.601Z,8
2016-12-04T12:55:27.579Z,8
2016-12-04T12:56:27.801Z,8
2016-12-04T12:57:26.913Z,8
2016-12-04T12:58:27.765Z,8
2016-12-04T12:59:27.516Z,8
2016-12-04T13:00:27.216Z,8
2016-12-04T13:01:27.163Z,4
2016-12-04T13:02:27.698Z,8
2016-12-04T13:03:27.674Z,8
2016-12-04T13:04:27.111Z,8
2016-12-04T13:05:27.410Z,8
2016-12-04T13:06:27.390Z,8
2016-12-04T13:07:27.065Z,4
2016-12-04T13:08:27.368Z,8
2016-12-04T13:09:26.614Z,8
2016-12-04T13:10:27.326Z,8
2016-12-04T13:11:27.522Z,8
2016-12-04T13:12:26.663Z,8
2016-12-04T13:13:27.317Z,8
2016-12-04T13:14:27.472Z,4
2016-12-04T13:15:26.930Z,4
2016-12-04T13:16:27.227Z,4
2016-12-04T13:17:26.896Z,4
2016-12-04T13:18:27.197Z,4
2016-12-04T13:19:26.867Z,4
2016-12-04T13:20:27.162Z,4
2016-12-04T13:21:27.154Z,4
2016-12-04T13:22:27.127Z,4
2016-12-04T13:23:27.118Z,4
2016-12-04T13:24:27.092Z,4
2016-12-04T13:25:26.757Z,4
2016-12-04T13:26:26.739Z,4
2016-12-04T13:27:26.728Z,4
2016-12-04T13:28:26.717Z,4
2016-12-04T13:29:27.011Z,4
2016-12-04T13:30:27.003Z,4
2016-12-04T13:31:26.980Z,4
2016-12-04T13:32:26.984Z,4
2016-12-04T13:33:26.950Z,4
2016-12-04T13:34:26.924Z,4
2016-12-04T13:35:26.910Z,4
2016-12-04T13:36:26.895Z,4
2016-12-04T13:37:26.565Z,4
2016-12-04T13:38:26.863Z,4
2016-12-04T13:39:26.861Z,4
2016-12-04T13:40:26.831Z,4
2016-12-04T13:41:26.490Z,4
2016-12-04T13:42:26.479Z,4
2016-12-04T13:43:26.782Z,4
2016-12-04T13:44:26.761Z,4
2016-12-04T13:45:26.743Z,4
2016-12-04T13:46:26.405Z,4
2016-12-04T13:47:26.709Z,4
2016-12-04T13:48:26.375Z,4
2016-12-04T13:49:26.694Z,4
2016-12-04T13:50:26.661Z,4
2016-12-04T13:51:26.327Z,4
2016-12-04T13:52:26.629Z,4
2016-12-04T13:53:26.611Z,4
2016-12-04T13:54:26.654Z,4
2016-12-04T13:55:26.264Z,8
2016-12-04T13:56:26.243Z,8
2016-12-04T13:57:26.222Z,8
2016-12-04T13:58:26.553Z,8
2016-12-04T13:59:26.505Z,8
2016-12-04T14:00:26.496Z,8
2016-12-04T14:01:26.475Z,4
2016-12-04T14:02:26.144Z,4
2016-12-04T14:03:26.667Z,4
2016-12-04T14:04:26.107Z,4
2016-12-04T14:05:26.407Z,4
2016-12-04T14:06:26.084Z,4
2016-12-04T14:07:26.064Z,4
2016-12-04T14:08:25.755Z,4
2016-12-04T14:09:26.028Z,4
2016-12-04T14:10:25.691Z,4
2016-12-04T14:11:26.320Z,4
2016-12-04T14:12:26.289Z,4
2016-12-04T14:13:26.273Z,4
2016-12-04T14:14:26.311Z,4
2016-12-04T14:15:26.254Z,4
2016-12-04T14:16:26.230Z,4
2016-12-04T14:17:26.209Z,4
2016-12-04T14:18:26.192Z,4
2016-12-04T14:19:25.853Z,4
2016-12-04T14:20:25.848Z,4
2016-12-04T14:21:26.175Z,4
2016-12-04T14:22:25.813Z,4
2016-12-04T14:23:25.786Z,4
2016-12-04T14:24:26.092Z,4
2016-12-04T14:25:26.077Z,4
2016-12-04T14:26:26.065Z,4
2016-12-04T14:27:25.730Z,4
2016-12-04T14:28:26.032Z,4
2016-12-04T14:29:26.002Z,4
2016-12-04T14:30:25.358Z,4
2016-12-04T14:31:25.662Z,4
2016-12-04T14:32:25.644Z,4
2016-12-04T14:33:25.639Z,0
2016-12-04T14:34:25.928Z,0
2016-12-04T14:35:25.911Z,0
2016-12-04T14:36:25.896Z,0
2016-12-04T14:37:25.277Z,0
2016-12-04T14:38:25.856Z,0
2016-12-04T14:39:25.843Z,0
2016-12-04T14:40:25.822Z,0